sensor_id;sensor_type;location;lat;lon;timestamp;temperature;humidity
13960;DHT22;7052;51.050;3.716;2022-10-16T00:02:24;13.80;99.90
13960;DHT22;7052;51.050;3.716;2022-10-16T00:04:59;13.80;99.90
13960;DHT22;7052;51.050;3.716;2022-10-16T00:07:27;13.80;99.90
13960;DHT22;7052;51.050;3.716;2022-10-16T00:09:55;13.80;99.90
13960;DHT22;7052;51.050;3.716;2022-10-16T00:12:22;13.80;99.90
13960;DHT22;7052;51.050;3.716;2022-10-16T00:14:48;13.80;99.90
13960;DHT22;7052;51.050;3.716;2022-10-16T00:17:16;13.70;99.90
13960;DHT22;7052;51.050;3.716;2022-10-16T00:19:43;13.80;99.90
13960;DHT22;7052;51.050;3.716;2022-10-16T00:22:10;13.70;99.90
13960;DHT22;7052;51.050;3.716;2022-10-16T00:24:38;13.70;99.90
13960;DHT22;7052;51.050;3.716;2022-10-16T00:27:06;13.60;99.90
13960;DHT22;7052;51.050;3.716;2022-10-16T00:29:34;13.60;99.90
13960;DHT22;7052;51.050;3.716;2022-10-16T00:32:00;13.60;99.90
13960;DHT22;7052;51.050;3.716;2022-10-16T00:34:27;13.60;99.90
13960;DHT22;7052;51.050;3.716;2022-10-16T00:36:54;13.50;99.90
13960;DHT22;7052;51.050;3.716;2022-10-16T00:39:21;13.50;99.90
13960;DHT22;7052;51.050;3.716;2022-10-16T00:41:48;13.50;99.90
13960;DHT22;7052;51.050;3.716;2022-10-16T00:44:46;13.40;99.90
13960;DHT22;7052;51.050;3.716;2022-10-16T00:47:17;13.40;99.90
13960;DHT22;7052;51.050;3.716;2022-10-16T00:49:46;13.40;99.90
13960;DHT22;7052;51.050;3.716;2022-10-16T00:52:13;13.30;99.90
13960;DHT22;7052;51.050;3.716;2022-10-16T00:54:40;13.30;99.90
13960;DHT22;7052;51.050;3.716;2022-10-16T00:57:07;13.30;99.90
13960;DHT22;7052;51.050;3.716;2022-10-16T00:59:36;13.30;99.90
13960;DHT22;7052;51.050;3.716;2022-10-16T01:02:07;13.30;99.90
13960;DHT22;7052;51.050;3.716;2022-10-16T01:04:37;13.30;99.90
13960;DHT22;7052;51.050;3.716;2022-10-16T01:07:12;13.30;99.90
13960;DHT22;7052;51.050;3.716;2022-10-16T01:09:47;13.30;99.90
13960;DHT22;7052;51.050;3.716;2022-10-16T01:12:25;13.40;99.90
13960;DHT22;7052;51.050;3.716;2022-10-16T01:14:54;13.40;99.90
13960;DHT22;7052;51.050;3.716;2022-10-16T01:17:31;13.40;99.90
13960;DHT22;7052;51.050;3.716;2022-10-16T01:20:05;13.50;99.90
13960;DHT22;7052;51.050;3.716;2022-10-16T01:22:40;13.40;99.90
13960;DHT22;7052;51.050;3.716;2022-10-16T01:25:16;13.30;99.90
13960;DHT22;7052;51.050;3.716;2022-10-16T01:27:48;13.30;99.90
13960;DHT22;7052;51.050;3.716;2022-10-16T01:30:18;13.40;99.90
13960;DHT22;7052;51.050;3.716;2022-10-16T01:32:49;13.40;99.90
13960;DHT22;7052;51.050;3.716;2022-10-16T01:35:18;13.40;99.90
13960;DHT22;7052;51.050;3.716;2022-10-16T01:37:52;13.40;99.90
13960;DHT22;7052;51.050;3.716;2022-10-16T01:40:21;13.40;99.90
13960;DHT22;7052;51.050;3.716;2022-10-16T01:42:55;13.40;99.90
13960;DHT22;7052;51.050;3.716;2022-10-16T01:45:22;13.40;99.90
13960;DHT22;7052;51.050;3.716;2022-10-16T01:47:50;13.40;99.90
13960;DHT22;7052;51.050;3.716;2022-10-16T01:50:19;13.30;99.90
13960;DHT22;7052;51.050;3.716;2022-10-16T01:52:49;13.30;99.90
13960;DHT22;7052;51.050;3.716;2022-10-16T01:55:21;13.40;99.90
13960;DHT22;7052;51.050;3.716;2022-10-16T01:57:51;13.30;99.90
13960;DHT22;7052;51.050;3.716;2022-10-16T02:00:21;13.30;99.90
13960;DHT22;7052;51.050;3.716;2022-10-16T02:02:50;13.30;99.90
13960;DHT22;7052;51.050;3.716;2022-10-16T02:05:22;13.30;99.90
13960;DHT22;7052;51.050;3.716;2022-10-16T02:07:50;13.30;99.90
13960;DHT22;7052;51.050;3.716;2022-10-16T02:10:17;13.30;99.90
13960;DHT22;7052;51.050;3.716;2022-10-16T02:12:48;13.30;99.90
13960;DHT22;7052;51.050;3.716;2022-10-16T02:15:17;13.30;99.90
13960;DHT22;7052;51.050;3.716;2022-10-16T02:17:44;13.30;99.90
13960;DHT22;7052;51.050;3.716;2022-10-16T02:20:11;13.30;99.90
13960;DHT22;7052;51.050;3.716;2022-10-16T02:22:40;13.20;99.90
13960;DHT22;7052;51.050;3.716;2022-10-16T02:25:11;13.20;99.90
13960;DHT22;7052;51.050;3.716;2022-10-16T02:27:48;13.20;99.90
13960;DHT22;7052;51.050;3.716;2022-10-16T02:30:21;13.20;99.90
13960;DHT22;7052;51.050;3.716;2022-10-16T02:32:50;13.20;99.90
13960;DHT22;7052;51.050;3.716;2022-10-16T02:35:20;13.30;99.90
13960;DHT22;7052;51.050;3.716;2022-10-16T02:37:48;13.30;99.90
13960;DHT22;7052;51.050;3.716;2022-10-16T02:40:17;13.30;99.90
13960;DHT22;7052;51.050;3.716;2022-10-16T02:42:49;13.30;99.90
13960;DHT22;7052;51.050;3.716;2022-10-16T02:45:18;13.30;99.90
13960;DHT22;7052;51.050;3.716;2022-10-16T02:47:45;13.20;99.90
13960;DHT22;7052;51.050;3.716;2022-10-16T02:50:12;13.20;99.90
13960;DHT22;7052;51.050;3.716;2022-10-16T02:52:39;13.20;99.90
13960;DHT22;7052;51.050;3.716;2022-10-16T02:55:06;13.20;99.90
13960;DHT22;7052;51.050;3.716;2022-10-16T02:57:34;13.20;99.90
13960;DHT22;7052;51.050;3.716;2022-10-16T03:00:03;13.20;99.90
13960;DHT22;7052;51.050;3.716;2022-10-16T03:02:31;13.10;99.90
13960;DHT22;7052;51.050;3.716;2022-10-16T03:04:58;13.10;99.90
13960;DHT22;7052;51.050;3.716;2022-10-16T03:07:24;13.10;99.90
13960;DHT22;7052;51.050;3.716;2022-10-16T03:09:51;13.10;99.90
13960;DHT22;7052;51.050;3.716;2022-10-16T03:12:18;13.00;99.90
13960;DHT22;7052;51.050;3.716;2022-10-16T03:14:45;13.00;99.90
13960;DHT22;7052;51.050;3.716;2022-10-16T03:17:12;13.00;99.90
13960;DHT22;7052;51.050;3.716;2022-10-16T03:19:44;13.00;99.90
13960;DHT22;7052;51.050;3.716;2022-10-16T03:22:13;13.00;99.90
13960;DHT22;7052;51.050;3.716;2022-10-16T03:24:40;13.00;99.90
13960;DHT22;7052;51.050;3.716;2022-10-16T03:27:06;13.00;99.90
13960;DHT22;7052;51.050;3.716;2022-10-16T03:29:33;13.00;99.90
13960;DHT22;7052;51.050;3.716;2022-10-16T03:32:00;13.00;99.90
13960;DHT22;7052;51.050;3.716;2022-10-16T03:34:27;13.00;99.90
13960;DHT22;7052;51.050;3.716;2022-10-16T03:36:56;13.00;99.90
13960;DHT22;7052;51.050;3.716;2022-10-16T03:39:23;13.00;99.90
13960;DHT22;7052;51.050;3.716;2022-10-16T03:41:50;13.00;99.90
13960;DHT22;7052;51.050;3.716;2022-10-16T03:44:16;12.90;99.90
13960;DHT22;7052;51.050;3.716;2022-10-16T03:46:45;12.90;99.90
13960;DHT22;7052;51.050;3.716;2022-10-16T03:49:17;12.90;99.90
13960;DHT22;7052;51.050;3.716;2022-10-16T03:51:44;12.90;99.90
13960;DHT22;7052;51.050;3.716;2022-10-16T03:54:12;12.90;99.90
13960;DHT22;7052;51.050;3.716;2022-10-16T03:56:39;13.00;99.90
13960;DHT22;7052;51.050;3.716;2022-10-16T03:59:06;13.10;99.90
13960;DHT22;7052;51.050;3.716;2022-10-16T04:01:33;13.00;99.90
13960;DHT22;7052;51.050;3.716;2022-10-16T04:03:59;13.00;99.90
13960;DHT22;7052;51.050;3.716;2022-10-16T04:06:26;13.00;99.90
13960;DHT22;7052;51.050;3.716;2022-10-16T04:08:54;13.00;99.90
13960;DHT22;7052;51.050;3.716;2022-10-16T04:11:23;13.00;99.90
13960;DHT22;7052;51.050;3.716;2022-10-16T04:13:49;12.90;99.90
13960;DHT22;7052;51.050;3.716;2022-10-16T04:16:16;12.90;99.90
13960;DHT22;7052;51.050;3.716;2022-10-16T04:18:43;12.90;99.90
13960;DHT22;7052;51.050;3.716;2022-10-16T04:21:10;12.90;99.90
13960;DHT22;7052;51.050;3.716;2022-10-16T04:23:37;12.90;99.90
13960;DHT22;7052;51.050;3.716;2022-10-16T04:26:03;12.90;99.90
13960;DHT22;7052;51.050;3.716;2022-10-16T04:28:32;12.80;99.90
13960;DHT22;7052;51.050;3.716;2022-10-16T04:30:58;12.80;99.90
13960;DHT22;7052;51.050;3.716;2022-10-16T04:33:25;12.80;99.90
13960;DHT22;7052;51.050;3.716;2022-10-16T04:35:56;12.80;99.90
13960;DHT22;7052;51.050;3.716;2022-10-16T04:38:24;12.90;99.90
13960;DHT22;7052;51.050;3.716;2022-10-16T04:40:50;12.80;99.90
13960;DHT22;7052;51.050;3.716;2022-10-16T04:43:18;12.90;99.90
13960;DHT22;7052;51.050;3.716;2022-10-16T04:45:46;12.90;99.90
13960;DHT22;7052;51.050;3.716;2022-10-16T04:48:13;12.80;99.90
13960;DHT22;7052;51.050;3.716;2022-10-16T04:50:40;12.90;99.90
13960;DHT22;7052;51.050;3.716;2022-10-16T04:53:08;12.80;99.90
13960;DHT22;7052;51.050;3.716;2022-10-16T04:55:36;12.80;99.90
13960;DHT22;7052;51.050;3.716;2022-10-16T04:58:03;12.70;99.90
13960;DHT22;7052;51.050;3.716;2022-10-16T05:00:30;12.80;99.90
13960;DHT22;7052;51.050;3.716;2022-10-16T05:02:58;12.80;99.90
13960;DHT22;7052;51.050;3.716;2022-10-16T05:05:26;12.80;99.90
13960;DHT22;7052;51.050;3.716;2022-10-16T05:07:53;12.80;99.90
13960;DHT22;7052;51.050;3.716;2022-10-16T05:10:20;12.80;99.90
13960;DHT22;7052;51.050;3.716;2022-10-16T05:12:47;12.70;99.90
13960;DHT22;7052;51.050;3.716;2022-10-16T05:15:14;12.70;99.90
13960;DHT22;7052;51.050;3.716;2022-10-16T05:17:40;12.70;99.90
13960;DHT22;7052;51.050;3.716;2022-10-16T05:20:09;12.80;99.90
13960;DHT22;7052;51.050;3.716;2022-10-16T05:22:36;12.70;99.90
13960;DHT22;7052;51.050;3.716;2022-10-16T05:25:03;12.80;99.90
13960;DHT22;7052;51.050;3.716;2022-10-16T05:27:30;12.80;99.90
13960;DHT22;7052;51.050;3.716;2022-10-16T05:29:57;12.90;99.90
13960;DHT22;7052;51.050;3.716;2022-10-16T05:32:24;12.90;99.90
13960;DHT22;7052;51.050;3.716;2022-10-16T05:34:50;12.90;99.90
13960;DHT22;7052;51.050;3.716;2022-10-16T05:37:19;13.00;99.90
13960;DHT22;7052;51.050;3.716;2022-10-16T05:39:45;13.00;99.90
13960;DHT22;7052;51.050;3.716;2022-10-16T05:42:12;13.00;99.90
13960;DHT22;7052;51.050;3.716;2022-10-16T05:44:40;13.00;99.90
13960;DHT22;7052;51.050;3.716;2022-10-16T05:47:06;13.00;99.90
13960;DHT22;7052;51.050;3.716;2022-10-16T05:49:33;13.00;99.90
13960;DHT22;7052;51.050;3.716;2022-10-16T05:52:00;13.00;99.90
13960;DHT22;7052;51.050;3.716;2022-10-16T05:54:29;13.00;99.90
13960;DHT22;7052;51.050;3.716;2022-10-16T05:56:55;12.90;99.90
13960;DHT22;7052;51.050;3.716;2022-10-16T05:59:22;12.90;99.90
13960;DHT22;7052;51.050;3.716;2022-10-16T06:01:49;12.90;99.90
13960;DHT22;7052;51.050;3.716;2022-10-16T06:04:16;12.90;99.90
13960;DHT22;7052;51.050;3.716;2022-10-16T06:06:42;12.80;99.90
13960;DHT22;7052;51.050;3.716;2022-10-16T06:09:10;12.80;99.90
13960;DHT22;7052;51.050;3.716;2022-10-16T06:11:38;12.80;99.90
13960;DHT22;7052;51.050;3.716;2022-10-16T06:14:05;12.90;99.90
13960;DHT22;7052;51.050;3.716;2022-10-16T06:16:33;12.70;99.90
13960;DHT22;7052;51.050;3.716;2022-10-16T06:19:01;12.70;99.90
13960;DHT22;7052;51.050;3.716;2022-10-16T06:21:32;12.70;99.90
13960;DHT22;7052;51.050;3.716;2022-10-16T06:24:00;12.70;99.90
13960;DHT22;7052;51.050;3.716;2022-10-16T06:26:29;12.80;99.90
13960;DHT22;7052;51.050;3.716;2022-10-16T06:28:58;12.80;99.90
13960;DHT22;7052;51.050;3.716;2022-10-16T06:31:26;12.80;99.90
13960;DHT22;7052;51.050;3.716;2022-10-16T06:33:56;12.80;99.90
13960;DHT22;7052;51.050;3.716;2022-10-16T06:36:24;12.80;99.90
13960;DHT22;7052;51.050;3.716;2022-10-16T06:38:51;12.80;99.90
13960;DHT22;7052;51.050;3.716;2022-10-16T06:41:19;12.80;99.90
13960;DHT22;7052;51.050;3.716;2022-10-16T06:43:47;12.90;99.90
13960;DHT22;7052;51.050;3.716;2022-10-16T06:46:17;12.90;99.90
13960;DHT22;7052;51.050;3.716;2022-10-16T06:48:46;12.90;99.90
13960;DHT22;7052;51.050;3.716;2022-10-16T06:51:14;12.90;99.90
13960;DHT22;7052;51.050;3.716;2022-10-16T06:53:44;12.90;99.90
13960;DHT22;7052;51.050;3.716;2022-10-16T06:56:13;12.90;99.90
13960;DHT22;7052;51.050;3.716;2022-10-16T06:58:40;12.90;99.90
13960;DHT22;7052;51.050;3.716;2022-10-16T07:01:08;13.00;99.90
13960;DHT22;7052;51.050;3.716;2022-10-16T07:03:38;13.00;99.90
13960;DHT22;7052;51.050;3.716;2022-10-16T07:06:08;13.00;99.90
13960;DHT22;7052;51.050;3.716;2022-10-16T07:08:36;13.10;99.90
13960;DHT22;7052;51.050;3.716;2022-10-16T07:11:05;13.10;99.90
13960;DHT22;7052;51.050;3.716;2022-10-16T07:13:33;13.20;99.90
13960;DHT22;7052;51.050;3.716;2022-10-16T07:16:04;13.30;99.90
13960;DHT22;7052;51.050;3.716;2022-10-16T07:18:31;13.30;99.90
13960;DHT22;7052;51.050;3.716;2022-10-16T07:21:05;13.40;99.90
13960;DHT22;7052;51.050;3.716;2022-10-16T07:23:33;13.50;99.90
13960;DHT22;7052;51.050;3.716;2022-10-16T07:26:00;13.50;99.90
13960;DHT22;7052;51.050;3.716;2022-10-16T07:28:27;13.50;99.90
13960;DHT22;7052;51.050;3.716;2022-10-16T07:30:54;13.50;99.90
13960;DHT22;7052;51.050;3.716;2022-10-16T07:33:21;13.50;99.90
13960;DHT22;7052;51.050;3.716;2022-10-16T07:35:50;13.50;99.90
13960;DHT22;7052;51.050;3.716;2022-10-16T07:38:18;13.60;99.90
13960;DHT22;7052;51.050;3.716;2022-10-16T07:40:45;13.70;99.90
13960;DHT22;7052;51.050;3.716;2022-10-16T07:43:12;13.70;99.90
13960;DHT22;7052;51.050;3.716;2022-10-16T07:45:47;13.80;99.90
13960;DHT22;7052;51.050;3.716;2022-10-16T07:48:18;13.90;99.90
13960;DHT22;7052;51.050;3.716;2022-10-16T07:50:47;14.00;99.90
13960;DHT22;7052;51.050;3.716;2022-10-16T07:53:14;14.10;99.90
13960;DHT22;7052;51.050;3.716;2022-10-16T07:55:42;14.10;99.90
13960;DHT22;7052;51.050;3.716;2022-10-16T07:58:09;14.10;99.90
13960;DHT22;7052;51.050;3.716;2022-10-16T08:00:37;14.20;99.90
13960;DHT22;7052;51.050;3.716;2022-10-16T08:03:04;14.20;99.90
13960;DHT22;7052;51.050;3.716;2022-10-16T08:05:32;14.20;99.90
13960;DHT22;7052;51.050;3.716;2022-10-16T08:08:00;14.30;99.90
13960;DHT22;7052;51.050;3.716;2022-10-16T08:10:29;14.40;99.90
13960;DHT22;7052;51.050;3.716;2022-10-16T08:12:59;14.50;99.90
13960;DHT22;7052;51.050;3.716;2022-10-16T08:15:32;14.40;99.90
13960;DHT22;7052;51.050;3.716;2022-10-16T08:18:00;14.50;99.90
13960;DHT22;7052;51.050;3.716;2022-10-16T08:20:28;14.50;99.90
13960;DHT22;7052;51.050;3.716;2022-10-16T08:22:55;14.60;99.90
13960;DHT22;7052;51.050;3.716;2022-10-16T08:25:23;14.60;99.90
13960;DHT22;7052;51.050;3.716;2022-10-16T08:27:50;14.70;99.90
13960;DHT22;7052;51.050;3.716;2022-10-16T08:30:20;14.80;99.90
13960;DHT22;7052;51.050;3.716;2022-10-16T08:32:48;14.90;99.90
13960;DHT22;7052;51.050;3.716;2022-10-16T08:35:15;14.90;99.90
13960;DHT22;7052;51.050;3.716;2022-10-16T08:37:42;15.00;99.90
13960;DHT22;7052;51.050;3.716;2022-10-16T08:40:17;15.10;99.90
13960;DHT22;7052;51.050;3.716;2022-10-16T08:43:01;15.10;99.90
13960;DHT22;7052;51.050;3.716;2022-10-16T08:45:42;15.10;99.90
13960;DHT22;7052;51.050;3.716;2022-10-16T08:48:17;15.20;99.90
13960;DHT22;7052;51.050;3.716;2022-10-16T08:50:47;15.40;99.90
13960;DHT22;7052;51.050;3.716;2022-10-16T08:53:18;15.40;99.90
13960;DHT22;7052;51.050;3.716;2022-10-16T08:55:50;15.50;99.90
13960;DHT22;7052;51.050;3.716;2022-10-16T08:58:21;15.50;99.90
13960;DHT22;7052;51.050;3.716;2022-10-16T09:00:53;15.50;99.90
13960;DHT22;7052;51.050;3.716;2022-10-16T09:03:29;15.40;99.90
13960;DHT22;7052;51.050;3.716;2022-10-16T09:06:17;15.40;99.90
13960;DHT22;7052;51.050;3.716;2022-10-16T09:08:58;15.40;99.90
13960;DHT22;7052;51.050;3.716;2022-10-16T09:11:34;15.50;99.90
13960;DHT22;7052;51.050;3.716;2022-10-16T09:14:15;15.40;99.90
13960;DHT22;7052;51.050;3.716;2022-10-16T09:16:50;15.50;99.90
13960;DHT22;7052;51.050;3.716;2022-10-16T09:19:25;15.60;99.90
13960;DHT22;7052;51.050;3.716;2022-10-16T09:21:56;15.70;99.90
13960;DHT22;7052;51.050;3.716;2022-10-16T09:24:25;15.80;99.90
13960;DHT22;7052;51.050;3.716;2022-10-16T09:26:53;15.80;99.90
13960;DHT22;7052;51.050;3.716;2022-10-16T09:29:24;15.90;99.90
13960;DHT22;7052;51.050;3.716;2022-10-16T09:31:55;16.00;99.90
13960;DHT22;7052;51.050;3.716;2022-10-16T09:34:29;16.20;99.90
13960;DHT22;7052;51.050;3.716;2022-10-16T09:36:57;16.30;99.90
13960;DHT22;7052;51.050;3.716;2022-10-16T09:39:27;16.40;99.90
13960;DHT22;7052;51.050;3.716;2022-10-16T09:41:55;16.40;99.90
13960;DHT22;7052;51.050;3.716;2022-10-16T09:44:26;16.50;99.90
13960;DHT22;7052;51.050;3.716;2022-10-16T09:47:03;16.50;99.90
13960;DHT22;7052;51.050;3.716;2022-10-16T09:49:30;16.60;99.90
13960;DHT22;7052;51.050;3.716;2022-10-16T09:52:04;16.70;99.90
13960;DHT22;7052;51.050;3.716;2022-10-16T09:54:31;16.70;99.90
13960;DHT22;7052;51.050;3.716;2022-10-16T09:57:05;16.70;99.90
13960;DHT22;7052;51.050;3.716;2022-10-16T09:59:32;16.80;99.90
13960;DHT22;7052;51.050;3.716;2022-10-16T10:02:04;16.80;99.90
13960;DHT22;7052;51.050;3.716;2022-10-16T10:04:40;16.80;99.90
13960;DHT22;7052;51.050;3.716;2022-10-16T10:07:17;16.90;99.90
13960;DHT22;7052;51.050;3.716;2022-10-16T10:09:45;17.00;99.90
13960;DHT22;7052;51.050;3.716;2022-10-16T10:12:21;17.10;99.90
13960;DHT22;7052;51.050;3.716;2022-10-16T10:14:49;17.20;99.90
13960;DHT22;7052;51.050;3.716;2022-10-16T10:17:20;17.30;99.90
13960;DHT22;7052;51.050;3.716;2022-10-16T10:19:53;17.40;99.90
13960;DHT22;7052;51.050;3.716;2022-10-16T10:22:31;17.60;99.90
13960;DHT22;7052;51.050;3.716;2022-10-16T10:25:15;17.60;99.90
13960;DHT22;7052;51.050;3.716;2022-10-16T10:27:58;17.60;99.90
13960;DHT22;7052;51.050;3.716;2022-10-16T10:30:30;17.60;99.90
13960;DHT22;7052;51.050;3.716;2022-10-16T10:33:12;17.70;99.90
13960;DHT22;7052;51.050;3.716;2022-10-16T10:35:46;17.70;99.90
13960;DHT22;7052;51.050;3.716;2022-10-16T10:38:28;17.80;99.90
13960;DHT22;7052;51.050;3.716;2022-10-16T10:41:12;17.90;99.90
13960;DHT22;7052;51.050;3.716;2022-10-16T10:43:55;18.00;99.90
13960;DHT22;7052;51.050;3.716;2022-10-16T10:46:32;18.00;99.90
13960;DHT22;7052;51.050;3.716;2022-10-16T10:49:22;18.10;99.90
13960;DHT22;7052;51.050;3.716;2022-10-16T10:51:59;18.30;99.90
13960;DHT22;7052;51.050;3.716;2022-10-16T10:54:33;18.40;99.90
13960;DHT22;7052;51.050;3.716;2022-10-16T10:57:07;18.50;99.90
13960;DHT22;7052;51.050;3.716;2022-10-16T10:59:54;18.70;99.90
13960;DHT22;7052;51.050;3.716;2022-10-16T11:02:32;18.70;99.90
13960;DHT22;7052;51.050;3.716;2022-10-16T11:05:27;18.60;99.90
13960;DHT22;7052;51.050;3.716;2022-10-16T11:08:00;18.40;99.90
13960;DHT22;7052;51.050;3.716;2022-10-16T11:10:33;18.20;99.90
13960;DHT22;7052;51.050;3.716;2022-10-16T11:13:10;18.20;99.90
13960;DHT22;7052;51.050;3.716;2022-10-16T11:15:42;18.20;99.90
13960;DHT22;7052;51.050;3.716;2022-10-16T11:18:16;18.30;99.90
13960;DHT22;7052;51.050;3.716;2022-10-16T11:20:50;18.40;99.90
13960;DHT22;7052;51.050;3.716;2022-10-16T11:23:25;18.40;99.90
13960;DHT22;7052;51.050;3.716;2022-10-16T11:26:04;18.30;99.90
13960;DHT22;7052;51.050;3.716;2022-10-16T11:28:45;18.30;99.90
13960;DHT22;7052;51.050;3.716;2022-10-16T11:31:18;18.20;99.90
13960;DHT22;7052;51.050;3.716;2022-10-16T11:33:49;18.10;99.90
13960;DHT22;7052;51.050;3.716;2022-10-16T11:36:22;18.10;99.90
13960;DHT22;7052;51.050;3.716;2022-10-16T11:38:54;18.00;99.90
13960;DHT22;7052;51.050;3.716;2022-10-16T11:41:41;18.20;99.90
13960;DHT22;7052;51.050;3.716;2022-10-16T11:44:19;18.50;99.90
13960;DHT22;7052;51.050;3.716;2022-10-16T11:46:57;18.70;99.90
13960;DHT22;7052;51.050;3.716;2022-10-16T11:49:30;18.90;99.90
13960;DHT22;7052;51.050;3.716;2022-10-16T11:52:11;19.10;99.90
13960;DHT22;7052;51.050;3.716;2022-10-16T11:54:48;19.10;99.90
13960;DHT22;7052;51.050;3.716;2022-10-16T11:57:20;19.20;99.90
13960;DHT22;7052;51.050;3.716;2022-10-16T11:59:51;19.20;99.60
13960;DHT22;7052;51.050;3.716;2022-10-16T12:02:31;19.00;99.40
13960;DHT22;7052;51.050;3.716;2022-10-16T12:05:10;19.00;99.90
13960;DHT22;7052;51.050;3.716;2022-10-16T12:07:46;19.00;99.90
13960;DHT22;7052;51.050;3.716;2022-10-16T12:10:20;19.00;99.90
13960;DHT22;7052;51.050;3.716;2022-10-16T12:12:47;19.00;98.40
13960;DHT22;7052;51.050;3.716;2022-10-16T12:15:25;18.90;98.50
13960;DHT22;7052;51.050;3.716;2022-10-16T12:17:53;18.90;98.30
13960;DHT22;7052;51.050;3.716;2022-10-16T12:20:24;18.90;98.20
13960;DHT22;7052;51.050;3.716;2022-10-16T12:22:55;19.00;98.80
13960;DHT22;7052;51.050;3.716;2022-10-16T12:25:26;19.10;98.90
13960;DHT22;7052;51.050;3.716;2022-10-16T12:27:58;19.10;98.40
13960;DHT22;7052;51.050;3.716;2022-10-16T12:30:27;19.00;97.60
13960;DHT22;7052;51.050;3.716;2022-10-16T12:32:56;19.00;97.80
13960;DHT22;7052;51.050;3.716;2022-10-16T12:35:26;19.10;98.00
13960;DHT22;7052;51.050;3.716;2022-10-16T12:38:05;19.10;97.60
13960;DHT22;7052;51.050;3.716;2022-10-16T12:40:34;19.20;97.20
13960;DHT22;7052;51.050;3.716;2022-10-16T12:43:13;19.30;96.90
13960;DHT22;7052;51.050;3.716;2022-10-16T12:45:40;19.40;97.00
13960;DHT22;7052;51.050;3.716;2022-10-16T12:48:19;19.50;97.20
13960;DHT22;7052;51.050;3.716;2022-10-16T12:50:47;19.50;97.20
13960;DHT22;7052;51.050;3.716;2022-10-16T12:53:21;19.50;97.40
13960;DHT22;7052;51.050;3.716;2022-10-16T12:55:55;19.50;97.60
13960;DHT22;7052;51.050;3.716;2022-10-16T12:58:41;19.60;97.10
13960;DHT22;7052;51.050;3.716;2022-10-16T13:01:22;19.60;97.10
13960;DHT22;7052;51.050;3.716;2022-10-16T13:04:14;19.60;97.00
13960;DHT22;7052;51.050;3.716;2022-10-16T13:06:47;19.70;97.20
13960;DHT22;7052;51.050;3.716;2022-10-16T13:12:25;19.90;95.60
13960;DHT22;7052;51.050;3.716;2022-10-16T13:15:06;19.70;95.50
13960;DHT22;7052;51.050;3.716;2022-10-16T13:17:42;19.60;96.10
13960;DHT22;7052;51.050;3.716;2022-10-16T13:20:16;19.40;96.60
13960;DHT22;7052;51.050;3.716;2022-10-16T13:22:53;19.20;97.00
13960;DHT22;7052;51.050;3.716;2022-10-16T13:25:31;19.10;97.80
13960;DHT22;7052;51.050;3.716;2022-10-16T13:28:02;18.90;98.40
13960;DHT22;7052;51.050;3.716;2022-10-16T13:30:30;18.80;99.00
13960;DHT22;7052;51.050;3.716;2022-10-16T13:33:01;18.80;99.20
13960;DHT22;7052;51.050;3.716;2022-10-16T13:35:30;18.90;99.40
13960;DHT22;7052;51.050;3.716;2022-10-16T13:38:11;19.00;99.20
13960;DHT22;7052;51.050;3.716;2022-10-16T13:40:51;19.10;98.90
13960;DHT22;7052;51.050;3.716;2022-10-16T13:43:19;19.10;98.20
13960;DHT22;7052;51.050;3.716;2022-10-16T13:45:55;19.30;97.90
13960;DHT22;7052;51.050;3.716;2022-10-16T13:48:22;19.50;97.50
13960;DHT22;7052;51.050;3.716;2022-10-16T13:50:59;19.50;97.40
13960;DHT22;7052;51.050;3.716;2022-10-16T13:53:26;19.50;97.50
13960;DHT22;7052;51.050;3.716;2022-10-16T13:55:54;19.50;97.60
13960;DHT22;7052;51.050;3.716;2022-10-16T13:58:21;19.40;98.20
13960;DHT22;7052;51.050;3.716;2022-10-16T14:00:55;19.40;98.30
13960;DHT22;7052;51.050;3.716;2022-10-16T14:03:23;19.30;98.30
13960;DHT22;7052;51.050;3.716;2022-10-16T14:05:55;19.20;98.30
13960;DHT22;7052;51.050;3.716;2022-10-16T14:08:23;19.10;98.30
13960;DHT22;7052;51.050;3.716;2022-10-16T14:10:52;19.10;98.80
13960;DHT22;7052;51.050;3.716;2022-10-16T14:13:29;19.10;99.30
13960;DHT22;7052;51.050;3.716;2022-10-16T14:16:05;19.10;99.70
13960;DHT22;7052;51.050;3.716;2022-10-16T14:18:32;19.10;99.90
13960;DHT22;7052;51.050;3.716;2022-10-16T14:21:03;19.10;99.90
13960;DHT22;7052;51.050;3.716;2022-10-16T14:23:33;19.00;99.90
13960;DHT22;7052;51.050;3.716;2022-10-16T14:26:14;19.00;99.90
13960;DHT22;7052;51.050;3.716;2022-10-16T14:28:43;19.00;99.90
13960;DHT22;7052;51.050;3.716;2022-10-16T14:31:26;18.90;99.90
13960;DHT22;7052;51.050;3.716;2022-10-16T14:33:54;18.80;99.90
13960;DHT22;7052;51.050;3.716;2022-10-16T14:36:21;18.80;99.90
13960;DHT22;7052;51.050;3.716;2022-10-16T14:38:56;18.70;99.90
13960;DHT22;7052;51.050;3.716;2022-10-16T14:41:24;18.70;99.90
13960;DHT22;7052;51.050;3.716;2022-10-16T14:43:54;18.70;99.90
13960;DHT22;7052;51.050;3.716;2022-10-16T14:46:23;18.60;99.90
13960;DHT22;7052;51.050;3.716;2022-10-16T14:48:59;18.60;99.90
13960;DHT22;7052;51.050;3.716;2022-10-16T14:51:28;18.50;99.90
13960;DHT22;7052;51.050;3.716;2022-10-16T14:53:55;18.50;99.90
13960;DHT22;7052;51.050;3.716;2022-10-16T14:56:24;18.40;99.90
13960;DHT22;7052;51.050;3.716;2022-10-16T14:58:53;18.40;99.90
13960;DHT22;7052;51.050;3.716;2022-10-16T15:01:20;18.30;99.90
13960;DHT22;7052;51.050;3.716;2022-10-16T15:03:47;18.30;99.90
13960;DHT22;7052;51.050;3.716;2022-10-16T15:06:15;18.30;99.90
13960;DHT22;7052;51.050;3.716;2022-10-16T15:08:42;18.20;99.90
13960;DHT22;7052;51.050;3.716;2022-10-16T15:11:11;18.20;99.90
13960;DHT22;7052;51.050;3.716;2022-10-16T15:13:38;18.20;99.90
13960;DHT22;7052;51.050;3.716;2022-10-16T15:16:10;18.20;99.90
13960;DHT22;7052;51.050;3.716;2022-10-16T15:18:38;18.20;99.90
13960;DHT22;7052;51.050;3.716;2022-10-16T15:21:05;18.10;99.90
13960;DHT22;7052;51.050;3.716;2022-10-16T15:23:32;18.10;99.90
13960;DHT22;7052;51.050;3.716;2022-10-16T15:25:59;18.10;99.90
13960;DHT22;7052;51.050;3.716;2022-10-16T15:28:26;18.00;99.90
13960;DHT22;7052;51.050;3.716;2022-10-16T15:30:56;18.10;99.90
13960;DHT22;7052;51.050;3.716;2022-10-16T15:33:27;18.00;99.90
13960;DHT22;7052;51.050;3.716;2022-10-16T15:35:58;18.00;99.90
13960;DHT22;7052;51.050;3.716;2022-10-16T15:38:30;18.00;99.90
13960;DHT22;7052;51.050;3.716;2022-10-16T15:40:57;17.90;99.90
13960;DHT22;7052;51.050;3.716;2022-10-16T15:43:24;17.80;99.90
13960;DHT22;7052;51.050;3.716;2022-10-16T15:46:00;17.80;99.90
13960;DHT22;7052;51.050;3.716;2022-10-16T15:48:29;17.80;99.90
13960;DHT22;7052;51.050;3.716;2022-10-16T15:50:56;17.80;99.90
13960;DHT22;7052;51.050;3.716;2022-10-16T15:53:23;17.70;99.90
13960;DHT22;7052;51.050;3.716;2022-10-16T15:55:50;17.60;99.90
13960;DHT22;7052;51.050;3.716;2022-10-16T15:58:17;17.60;99.90
13960;DHT22;7052;51.050;3.716;2022-10-16T16:00:44;17.60;99.90
13960;DHT22;7052;51.050;3.716;2022-10-16T16:03:11;17.60;99.90
13960;DHT22;7052;51.050;3.716;2022-10-16T16:05:39;17.50;99.90
13960;DHT22;7052;51.050;3.716;2022-10-16T16:08:06;17.50;99.90
13960;DHT22;7052;51.050;3.716;2022-10-16T16:10:34;17.50;99.90